• Join FlightAware (Why Join?)
  • Login
  • US Flag 
Gobble Gobble! 
04:00PM EST


 

Airport Tracker/Info


-or-


 

Live Flight TrackerFlight Track Log ✈ SKW5314 ✈ 10-May-2013 ✈ KSBA - KLAX

Flight Track Log - Related Links

Times and Time Zones

All times are in EDT time to prevent confusion due to time zone crossing. See the SKW5314 flight status page for this flight to view local times or setup timezone preferences in your user account.

Time Position Orientation Groundspeed Altitude Reporting Facility
EDT Latitude Longitude Course Direction KTS MPH feet Rate Location/Type
01:20PM 34.4233 -119.9067 267° West 163 188 1,800  Level Los Angeles Center
01:21PM 34.3894 -119.9231 202° Southwest 224 258 2,900 1,500 Climbing Los Angeles Center
01:22PM 34.3414 -119.8911 151° Southeast 208 239 4,400 1,500 Climbing Los Angeles Center
01:23PM 34.2964 -119.8503 143° Southeast 206 237 6,000 1,680 Climbing Los Angeles Center
01:24PM 34.2825 -119.7881 105° East 195 224 7,900 1,800 Climbing Los Angeles Center
01:25PM 34.2669 -119.7300 108° East 185 213 9,800 1,500 Climbing Los Angeles Center
01:26PM 34.2528 -119.6725 107° East 180 207 11,100 660 Climbing Los Angeles Center
01:27PM 34.2308 -119.5875 107° East 211 243 11,200  Climbing Los Angeles Center
01:28PM 34.2153 -119.5147 104° East 224 258 11,100 -60 Descending Los Angeles Center
01:29PM 34.2017 -119.4431 103° East 219 252 11,100  Level Los Angeles Center
01:30PM 34.1881 -119.3703 103° East 222 255 11,100  Level Los Angeles Center
01:31PM 34.1728 -119.2986 104° East 219 252 11,100  Level Los Angeles Center
01:32PM 34.1536 -119.2144 105° East 218 251 11,100  Level Los Angeles Center
01:33PM 34.1375 -119.1447 106° East 217 250 11,100  Level Los Angeles Center
01:34PM 34.1214 -119.0744 105° East 217 250 11,100  Level Los Angeles Center
01:35PM 34.1031 -119.0042 107° East 220 253 11,100  Level Los Angeles Center
01:36PM 34.0831 -118.9339 109° East 221 254 11,100 -240 Level Los Angeles Center
01:37PM 34.0633 -118.8617 108° East 227 261 10,700 -540 Descending Los Angeles Center
01:38PM 34.0389 -118.7706 108° East 243 280 10,100 -300 Descending Los Angeles Center
01:39PM 34.0306 -118.6919 97° East 216 249 10,100 -60 Level Los Angeles Center
01:40PM 34.0250 -118.6206 95° East 214 246 10,000 -600 Descending Los Angeles Center
01:41PM 34.0164 -118.5481 98° East 216 249 8,900 -1,260 Descending Los Angeles Center
01:42PM 34.0092 -118.4725 97° East 210 242 7,400 -1,380 Descending Los Angeles Center
01:43PM 34.0136 -118.4119 85° East 215 247 6,100 -1,560 Descending Los Angeles Center
01:44PM 34.0272 -118.3242 79° East 220 253 4,200 -1,020 Descending Los Angeles Center
01:45PM 34.0389 -118.2503 79° East 223 257 4,100 -60 Descending Los Angeles Center
01:46PM 34.0519 -118.1781 78° East 221 254 4,100 -60 Level Los Angeles Center
01:47PM 34.0542 -118.1058 88° East 222 255 4,000 -120 Descending Los Angeles Center
01:48PM 34.0333 -118.1000 167° South 230 265 4,000 -1,020 Level Southern California TRACON
01:49PM 33.9833 -118.1000 180° South 216 249 2,700 -780 Descending Southern California TRACON
01:50PM 33.9792 -118.1422 263° West 202 232 2,700  Level Los Angeles Center
01:51PM 33.9717 -118.2183 263° West 194 223 2,700 -300 Level Los Angeles Center
01:52PM 33.9653 -118.2803 263° West 192 221 2,200 -660 Descending Los Angeles Center
01:53PM 33.9606 -118.3303 264° West 166 191 1,400 -780 Descending Los Angeles Center
01:54PM 33.9567 -118.3719 264° West 139 160 700 -600 Descending Los Angeles Center
01:55PM 33.9511 -118.4167 261° West 131 151 200 -540 Descending Los Angeles Center